Weather at Piarco International Airport

Public forecast

Using degrees Celsius for public forecast. Weather courtesy of forecast.io.

Current aviation weather report (METAR) for Piarco International Airport

Retrieved 2021/10/16 05:00 UTC (58 minutes ago):

TTPP 160500Z 11007KT 9999 FEW016 26/23 Q1011 NOSIG

Aviation forecast (TAF) for Piarco International Airport

Retrieved 2021-10-16 00:22 UTC (6 hours ago):

TAF TTPP 152200Z 1600/1624 10004KT 9999 FEW016 BECMG 1613/1615 12010KT SCT025 PROB30 TEMPO 1618/1620 5000 SHRA FEW012CB BKN017